Time;durP1;ratioP1;P1;durP2;ratioP2;P2;SDS_P1;SDS_P2;PMS_P1;PMS_P2;Temp;Humidity;BMP_temperature;BMP_pressure;BME280_temperature;BME280_humidity;BME280_pressure;Samples;Min_cycle;Max_cycle;Signal;HPM_P1;HPM_P2
2023/05/12 00:00:46;;;;;;;;;;;;;;;11.93;100.00;101649.63;5027128;28;20368;-55
2023/05/12 00:03:11;;;;;;;;;;;;;;;11.92;100.00;101642.72;5025236;28;19921;-54
2023/05/12 00:05:37;;;;;;;;;;;;;;;11.92;100.00;101643.59;5032990;27;19967;-56
2023/05/12 00:08:02;;;;;;;;;;;;;;;11.89;100.00;101637.44;5031950;28;19936;-56
2023/05/12 00:10:27;;;;;;;;;;;;;;;11.87;100.00;101645.13;5028200;28;20283;-55
2023/05/12 00:12:54;;;;;;;;;;;;;;;11.86;100.00;101637.34;5030248;28;19940;-56
2023/05/12 00:15:19;;;;;;;;;;;;;;;11.86;100.00;101639.94;5028850;28;20036;-56
2023/05/12 00:17:44;;;;;;;;;;;;;;;11.81;100.00;101639.75;5033793;27;20389;-56
2023/05/12 00:20:10;;;;;;;;;;;;;;;11.80;100.00;101648.28;5029553;28;19939;-55
2023/05/12 00:22:36;;;;;;;;;;;;;;;11.76;100.00;101636.97;5028706;28;19960;-55
2023/05/12 00:25:01;;;;;;;;;;;;;;;11.70;100.00;101641.91;5029578;28;19925;-54
2023/05/12 00:27:26;;;;;;;;;;;;;;;11.63;100.00;101637.38;5030006;28;19921;-55
2023/05/12 00:29:51;;;;;;;;;;;;;;;11.58;100.00;101628.59;5032377;27;19966;-55
2023/05/12 00:32:17;;;;;;;;;;;;;;;11.56;100.00;101637.97;5025484;28;20012;-55
2023/05/12 00:34:42;;;;;;;;;;;;;;;11.54;100.00;101637.06;5031154;28;19923;-55
2023/05/12 00:37:07;;;;;;;;;;;;;;;11.50;100.00;101632.59;5031623;28;19924;-54
2023/05/12 00:39:32;;;;;;;;;;;;;;;11.48;100.00;101626.53;5045609;27;19916;-55
2023/05/12 00:41:58;;;;;;;;;;;;;;;11.47;100.00;101633.38;5034127;27;19918;-54
2023/05/12 00:44:23;;;;;;;;;;;;;;;11.46;100.00;101631.59;5027950;28;19923;-54
2023/05/12 00:46:49;;;;;;;;;;;;;;;11.44;100.00;101630.69;5026814;28;19921;-55
2023/05/12 00:49:14;;;;;;;;;;;;;;;11.42;100.00;101626.31;5025420;27;20027;-55
2023/05/12 00:51:40;;;;;;;;;;;;;;;11.38;100.00;101629.56;5030069;27;19925;-53
2023/05/12 00:54:05;;;;;;;;;;;;;;;11.38;100.00;101632.16;5030987;27;19970;-56
2023/05/12 00:56:34;;;;;;;;;;;;;;;11.37;100.00;101636.44;5023489;27;19925;-55
2023/05/12 00:58:59;;;;;;;;;;;;;;;11.36;100.00;101623.50;5030079;27;19974;-56
2023/05/12 01:01:25;;;;;;;;;;;;;;;11.38;100.00;101624.44;5045483;27;19927;-56
2023/05/12 01:03:50;;;;;;;;;;;;;;;11.37;100.00;101620.09;5027745;27;19932;-54
2023/05/12 01:06:20;;;;;;;;;;;;;;;11.37;100.00;101618.41;5023375;27;20424;-55
2023/05/12 01:08:46;;;;;;;;;;;;;;;11.37;100.00;101615.81;5029030;27;20216;-54
2023/05/12 01:11:11;;;;;;;;;;;;;;;11.36;100.00;101619.22;5020899;27;20443;-56
2023/05/12 01:13:38;;;;;;;;;;;;;;;11.35;100.00;101611.47;5026106;27;19921;-55
2023/05/12 01:16:06;;;;;;;;;;;;;;;11.33;100.00;101611.38;5026829;27;19929;-55
2023/05/12 01:18:33;;;;;;;;;;;;;;;11.33;100.00;101607.94;5044021;27;20340;-53
2023/05/12 01:20:59;;;;;;;;;;;;;;;11.35;100.00;101617.47;5031923;27;19917;-52
2023/05/12 01:23:28;;;;;;;;;;;;;;;11.35;100.00;101602.03;5031409;27;19948;-52
2023/05/12 01:25:54;;;;;;;;;;;;;;;11.34;100.00;101607.97;5031530;27;20024;-53
2023/05/12 01:28:20;;;;;;;;;;;;;;;11.32;100.00;101611.31;5023457;27;20007;-50
2023/05/12 01:30:46;;;;;;;;;;;;;;;11.28;100.00;101610.31;5026838;27;19928;-49
2023/05/12 01:33:12;;;;;;;;;;;;;;;11.21;100.00;101604.06;5042596;27;19933;-50
2023/05/12 01:35:37;;;;;;;;;;;;;;;11.15;100.00;101603.84;5035851;27;19919;-50
2023/05/12 01:38:03;;;;;;;;;;;;;;;11.09;100.00;101601.03;5059089;27;19959;-52
2023/05/12 01:40:28;;;;;;;;;;;;;;;11.03;100.00;101605.97;5029971;27;20294;-53
2023/05/12 01:42:53;;;;;;;;;;;;;;;11.02;100.00;101602.50;5042814;27;19929;-49
2023/05/12 01:45:18;;;;;;;;;;;;;;;10.97;100.00;101603.16;5033012;27;19928;-49
2023/05/12 01:47:44;;;;;;;;;;;;;;;10.95;100.00;101597.09;5044325;27;20270;-49
2023/05/12 01:50:09;;;;;;;;;;;;;;;10.93;100.00;101601.31;5031985;27;20012;-48
2023/05/12 01:52:34;;;;;;;;;;;;;;;10.89;100.00;101605.44;5024434;27;19921;-49
2023/05/12 01:55:00;;;;;;;;;;;;;;;10.88;100.00;101602.81;5022055;27;20310;-49
2023/05/12 01:57:25;;;;;;;;;;;;;;;10.88;100.00;101601.13;5021457;28;19995;-48
2023/05/12 01:59:50;;;;;;;;;;;;;;;10.85;100.00;101598.41;5024301;27;20295;-48
2023/05/12 02:02:15;;;;;;;;;;;;;;;10.82;100.00;101595.75;5055728;28;19933;-49
2023/05/12 02:04:40;;;;;;;;;;;;;;;10.80;100.00;101596.47;5021323;28;19969;-49
2023/05/12 02:07:06;;;;;;;;;;;;;;;10.74;100.00;101590.31;5023836;27;20582;-48
2023/05/12 02:09:31;;;;;;;;;;;;;;;10.72;100.00;101586.78;5021241;27;19982;-48
2023/05/12 02:11:57;;;;;;;;;;;;;;;10.74;100.00;101584.28;5022648;27;19921;-47
2023/05/12 02:14:22;;;;;;;;;;;;;;;10.70;100.00;101585.84;5020818;28;19921;-47
2023/05/12 02:16:51;;;;;;;;;;;;;;;10.69;100.00;101583.22;5027417;27;19929;-46
2023/05/12 02:19:16;;;;;;;;;;;;;;;10.70;100.00;101583.28;5019724;28;19956;-47
2023/05/12 02:21:44;;;;;;;;;;;;;;;10.69;100.00;101586.66;5025091;28;20050;-47
2023/05/12 02:24:10;;;;;;;;;;;;;;;10.69;100.00;101581.53;5021155;28;19921;-47
2023/05/12 02:26:35;;;;;;;;;;;;;;;10.68;100.00;101579.78;5022743;28;19978;-48
2023/05/12 02:29:00;;;;;;;;;;;;;;;10.66;100.00;101575.38;5020716;28;20016;-48
2023/05/12 02:31:25;;;;;;;;;;;;;;;10.67;100.00;101574.56;5022664;28;19921;-47
2023/05/12 02:33:51;;;;;;;;;;;;;;;10.66;100.00;101572.81;5026907;28;19929;-47
2023/05/12 02:36:16;;;;;;;;;;;;;;;10.69;100.00;101571.22;5027111;28;19917;-48
2023/05/12 02:38:41;;;;;;;;;;;;;;;10.68;100.00;101564.34;5031214;27;19948;-47
2023/05/12 02:41:07;;;;;;;;;;;;;;;10.67;100.00;101572.84;5026319;28;19945;-46
2023/05/12 02:43:32;;;;;;;;;;;;;;;10.68;100.00;101573.75;5033583;28;19921;-47
2023/05/12 02:45:57;;;;;;;;;;;;;;;10.67;100.00;101565.13;5026890;28;19921;-47
2023/05/12 02:48:22;;;;;;;;;;;;;;;10.63;100.00;101570.13;5026116;28;19921;-47
2023/05/12 02:50:48;;;;;;;;;;;;;;;10.61;100.00;101567.47;5015498;28;20020;-49
2023/05/12 02:53:13;;;;;;;;;;;;;;;10.58;100.00;101559.66;5026840;28;20330;-48
2023/05/12 02:55:38;;;;;;;;;;;;;;;10.57;100.00;101554.47;5036235;28;19921;-53
2023/05/12 02:58:03;;;;;;;;;;;;;;;10.58;100.00;101551.06;5024792;28;19971;-53
2023/05/12 03:00:29;;;;;;;;;;;;;;;10.55;100.00;101551.81;5022137;28;20473;-54
2023/05/12 03:02:54;;;;;;;;;;;;;;;10.58;100.00;101544.22;5027251;28;19917;-52
2023/05/12 03:05:19;;;;;;;;;;;;;;;10.56;100.00;101537.28;5027170;27;19921;-50
2023/05/12 03:07:47;;;;;;;;;;;;;;;10.56;100.00;101539.84;5026281;28;20290;-50
2023/05/12 03:10:12;;;;;;;;;;;;;;;10.56;100.00;101537.28;5025876;28;19932;-50
2023/05/12 03:12:38;;;;;;;;;;;;;;;10.54;100.00;101533.75;5026419;28;19933;-50
2023/05/12 03:15:03;;;;;;;;;;;;;;;10.53;100.00;101537.13;5034989;27;19921;-48
2023/05/12 03:17:28;;;;;;;;;;;;;;;10.54;100.00;101539.75;5025431;28;20651;-48
2023/05/12 03:19:54;;;;;;;;;;;;;;;10.52;100.00;101546.56;5023304;28;20012;-51
2023/05/12 03:22:19;;;;;;;;;;;;;;;10.54;100.00;101544.91;5027452;28;20465;-48
2023/05/12 03:24:45;;;;;;;;;;;;;;;10.56;100.00;101530.44;5020647;27;19940;-51
2023/05/12 03:27:11;;;;;;;;;;;;;;;10.53;100.00;101532.88;5027385;28;19925;-48
2023/05/12 03:29:36;;;;;;;;;;;;;;;10.54;100.00;101531.19;5024875;28;20383;-48
2023/05/12 03:32:01;;;;;;;;;;;;;;;10.53;100.00;101532.00;5028319;28;19921;-51
2023/05/12 03:34:27;;;;;;;;;;;;;;;10.52;100.00;101533.69;5025988;28;19917;-48
2023/05/12 03:36:52;;;;;;;;;;;;;;;10.52;100.00;101528.56;5050203;28;20427;-48
2023/05/12 03:39:17;;;;;;;;;;;;;;;10.53;100.00;101527.72;5025389;28;19993;-47
2023/05/12 03:41:42;;;;;;;;;;;;;;;10.56;100.00;101524.41;5026065;28;19918;-47
2023/05/12 03:44:08;;;;;;;;;;;;;;;10.54;100.00;101521.75;5026761;28;20398;-47
2023/05/12 03:46:34;;;;;;;;;;;;;;;10.56;100.00;101524.41;5040347;27;19981;-48
2023/05/12 03:48:59;;;;;;;;;;;;;;;10.57;100.00;101521.03;5026210;28;19936;-49
2023/05/12 03:51:24;;;;;;;;;;;;;;;10.59;100.00;101527.09;5026968;28;19917;-47
2023/05/12 03:53:50;;;;;;;;;;;;;;;10.58;100.00;101521.06;5026165;28;19952;-48
2023/05/12 03:56:16;;;;;;;;;;;;;;;10.64;100.00;101520.44;5025140;28;19917;-48
2023/05/12 03:58:41;;;;;;;;;;;;;;;10.61;100.00;101520.31;5026245;28;20398;-48
2023/05/12 04:01:06;;;;;;;;;;;;;;;10.59;100.00;101520.25;5021416;28;19925;-49
2023/05/12 04:03:32;;;;;;;;;;;;;;;10.63;100.00;101516.13;5027074;28;19928;-49
2023/05/12 04:06:00;;;;;;;;;;;;;;;10.62;100.00;101517.81;5022928;28;20020;-47
2023/05/12 04:08:26;;;;;;;;;;;;;;;10.62;100.00;101517.81;5025208;28;20331;-47
2023/05/12 04:10:53;;;;;;;;;;;;;;;10.65;100.00;101517.03;5023309;28;19933;-47
2023/05/12 04:13:19;;;;;;;;;;;;;;;10.62;100.00;101512.66;5026335;28;20291;-47
2023/05/12 04:15:44;;;;;;;;;;;;;;;10.61;100.00;101518.59;5027971;28;19921;-50
2023/05/12 04:18:09;;;;;;;;;;;;;;;10.64;100.00;101517.88;5020547;28;19918;-48
2023/05/12 04:20:34;;;;;;;;;;;;;;;10.62;100.00;101520.38;5024442;28;19994;-47
2023/05/12 04:23:00;;;;;;;;;;;;;;;10.62;100.00;101511.78;5022863;28;19921;-50
2023/05/12 04:25:25;;;;;;;;;;;;;;;10.63;100.00;101517.00;5026644;28;19921;-46
2023/05/12 04:27:50;;;;;;;;;;;;;;;10.69;100.00;101512.06;5026290;28;19925;-47
2023/05/12 04:30:15;;;;;;;;;;;;;;;10.70;100.00;101513.81;5036018;28;19925;-48
2023/05/12 04:32:41;;;;;;;;;;;;;;;10.71;100.00;101519.84;5032068;28;19921;-46
2023/05/12 04:35:06;;;;;;;;;;;;;;;10.65;100.00;101512.78;5030043;28;20386;-47
2023/05/12 04:37:31;;;;;;;;;;;;;;;10.68;100.00;101514.59;5047237;28;19929;-47
2023/05/12 04:39:57;;;;;;;;;;;;;;;10.68;100.00;101515.47;5026789;28;20540;-47
2023/05/12 04:42:22;;;;;;;;;;;;;;;10.68;100.00;101515.47;5016790;28;20432;-47
2023/05/12 04:44:47;;;;;;;;;;;;;;;10.69;100.00;101518.91;5018400;28;19922;-46
2023/05/12 04:47:12;;;;;;;;;;;;;;;10.73;100.00;101520.78;5020206;28;20012;-47
2023/05/12 04:49:38;;;;;;;;;;;;;;;10.72;100.00;101511.31;5007936;28;19944;-47
2023/05/12 04:52:06;;;;;;;;;;;;;;;10.77;100.00;101521.78;5024639;28;19967;-47
2023/05/12 04:54:31;;;;;;;;;;;;;;;10.81;100.00;101519.38;5025880;28;19927;-47
2023/05/12 04:56:57;;;;;;;;;;;;;;;10.79;100.00;101525.28;5029228;27;20008;-46
2023/05/12 04:59:22;;;;;;;;;;;;;;;10.83;100.00;101528.03;5026920;28;19967;-49
2023/05/12 05:01:47;;;;;;;;;;;;;;;10.84;100.00;101536.63;5029946;27;19928;-46
2023/05/12 05:04:13;;;;;;;;;;;;;;;10.86;100.00;101533.28;5029244;27;20428;-47
2023/05/12 05:06:38;;;;;;;;;;;;;;;10.88;100.00;101528.19;5031221;27;19925;-47
2023/05/12 05:09:03;;;;;;;;;;;;;;;10.87;100.00;101527.31;5028062;28;19917;-49
2023/05/12 05:11:28;;;;;;;;;;;;;;;10.91;100.00;101534.31;5030976;27;19925;-47
2023/05/12 05:13:54;;;;;;;;;;;;;;;10.92;100.00;101538.66;5028365;28;20427;-48
2023/05/12 05:16:19;;;;;;;;;;;;;;;10.98;100.00;101544.03;5022477;27;20383;-48
2023/05/12 05:18:45;;;;;;;;;;;;;;;11.00;100.00;101537.25;5046148;27;19937;-49
2023/05/12 05:21:13;;;;;;;;;;;;;;;11.04;100.00;101543.38;5050113;27;19917;-45
2023/05/12 05:23:38;;;;;;;;;;;;;;;11.08;100.00;101536.66;5027848;28;19917;-46
2023/05/12 05:26:04;;;;;;;;;;;;;;;11.12;100.00;101547.13;5028085;28;19943;-46
2023/05/12 05:28:29;;;;;;;;;;;;;;;11.14;100.00;101555.75;5029527;28;20516;-45
2023/05/12 05:30:55;;;;;;;;;;;;;;;11.17;100.00;101555.03;5028508;28;19929;-45
2023/05/12 05:33:20;;;;;;;;;;;;;;;11.21;100.00;101555.16;5023763;28;19923;-46
2023/05/12 05:35:45;;;;;;;;;;;;;;;11.24;100.00;101560.44;5049415;28;19951;-48
2023/05/12 05:38:11;;;;;;;;;;;;;;;11.32;100.00;101559.84;5029939;28;20012;-47
2023/05/12 05:40:37;;;;;;;;;;;;;;;11.31;100.00;101556.38;5028937;28;20367;-49
2023/05/12 05:43:02;;;;;;;;;;;;;;;11.33;100.00;101559.00;5029116;28;19921;-49
2023/05/12 05:45:28;;;;;;;;;;;;;;;11.37;100.00;101560.88;5027512;28;19921;-46
2023/05/12 05:47:53;;;;;;;;;;;;;;;11.40;100.00;101571.28;5029197;28;19956;-48
2023/05/12 05:50:18;;;;;;;;;;;;;;;11.43;100.00;101563.69;5028881;28;20407;-46
2023/05/12 05:52:43;;;;;;;;;;;;;;;11.44;100.00;101575.72;5028193;28;19917;-50
2023/05/12 05:55:09;;;;;;;;;;;;;;;11.49;100.00;101576.78;5029017;28;20383;-46
2023/05/12 05:57:34;;;;;;;;;;;;;;;11.52;100.00;101574.28;5026638;28;20321;-49
2023/05/12 05:59:59;;;;;;;;;;;;;;;11.61;100.00;101584.06;5028180;28;20064;-49
2023/05/12 06:02:25;;;;;;;;;;;;;;;11.64;100.00;101586.72;5026738;28;19975;-45
2023/05/12 06:04:51;;;;;;;;;;;;;;;11.73;100.00;101587.06;5025206;28;19925;-46
2023/05/12 06:07:16;;;;;;;;;;;;;;;11.84;100.00;101590.94;5022691;28;20372;-46
2023/05/12 06:09:41;;;;;;;;;;;;;;;11.93;100.00;101586.06;5025604;28;19925;-44
2023/05/12 06:12:07;;;;;;;;;;;;;;;12.10;100.00;101591.78;5029291;28;19924;-49
2023/05/12 06:14:32;;;;;;;;;;;;;;;12.22;100.00;101588.75;5027805;28;19999;-46
2023/05/12 06:16:57;;;;;;;;;;;;;;;12.38;100.00;101593.59;5019842;28;19917;-46
2023/05/12 06:19:23;;;;;;;;;;;;;;;12.52;100.00;101604.34;5022290;28;19921;-46
2023/05/12 06:21:48;;;;;;;;;;;;;;;12.65;100.00;101601.31;5021596;28;20331;-48
2023/05/12 06:24:13;;;;;;;;;;;;;;;12.78;100.00;101611.19;5024116;28;19929;-47
2023/05/12 06:26:38;;;;;;;;;;;;;;;12.88;100.00;101613.22;5022035;28;19948;-48
2023/05/12 06:29:07;;;;;;;;;;;;;;;13.00;100.00;101615.31;5022863;28;19921;-45
2023/05/12 06:31:32;;;;;;;;;;;;;;;13.04;100.00;101617.16;5021094;28;20015;-46
2023/05/12 06:33:57;;;;;;;;;;;;;;;13.08;100.00;101615.53;5023299;28;20078;-45
2023/05/12 06:36:23;;;;;;;;;;;;;;;13.03;100.00;101624.84;5021653;28;19952;-45
2023/05/12 06:38:49;;;;;;;;;;;;;;;13.08;100.00;101624.16;5022092;28;19925;-46
2023/05/12 06:41:15;;;;;;;;;;;;;;;13.11;100.00;101628.53;5023779;28;19917;-44
2023/05/12 06:43:40;;;;;;;;;;;;;;;13.11;100.00;101634.59;5023327;28;19925;-46
2023/05/12 06:46:05;;;;;;;;;;;;;;;13.12;100.00;101632.88;5021932;28;20303;-47
2023/05/12 06:48:31;;;;;;;;;;;;;;;13.16;100.00;101634.69;5022167;28;20380;-46
2023/05/12 06:50:56;;;;;;;;;;;;;;;13.25;100.00;101637.59;5022451;28;20074;-45
2023/05/12 06:53:21;;;;;;;;;;;;;;;13.31;100.00;101639.50;5022925;28;19940;-45
2023/05/12 06:55:47;;;;;;;;;;;;;;;13.33;100.00;101640.41;5023725;28;20839;-44
2023/05/12 06:58:12;;;;;;;;;;;;;;;13.41;100.00;101652.72;5021747;28;20325;-46
2023/05/12 07:00:38;;;;;;;;;;;;;;;13.50;100.00;101648.63;5020621;28;19937;-47
2023/05/12 07:03:03;;;;;;;;;;;;;;;13.53;100.00;101646.13;5023397;28;19921;-45
2023/05/12 07:05:28;;;;;;;;;;;;;;;13.68;100.00;101641.41;5022909;28;20397;-46
2023/05/12 07:07:53;;;;;;;;;;;;;;;13.66;100.00;101646.53;5022570;28;19925;-45
2023/05/12 07:10:20;;;;;;;;;;;;;;;13.73;100.00;101645.00;5020640;28;20790;-45
2023/05/12 07:12:45;;;;;;;;;;;;;;;13.84;100.00;101659.09;5023311;27;20343;-46
2023/05/12 07:15:10;;;;;;;;;;;;;;;13.81;100.00;101658.13;5020176;28;19960;-46
2023/05/12 07:17:36;;;;;;;;;;;;;;;13.91;100.00;101665.31;5020636;28;20272;-46
2023/05/12 07:20:01;;;;;;;;;;;;;;;13.95;100.00;101657.69;5019936;28;20802;-48
2023/05/12 07:22:26;;;;;;;;;;;;;;;13.97;100.00;101659.44;5026938;28;19918;-45
2023/05/12 07:24:51;;;;;;;;;;;;;;;14.03;100.00;101675.09;5025065;28;20360;-46
2023/05/12 07:27:17;;;;;;;;;;;;;;;14.17;100.00;101658.22;5055450;28;19925;-45
2023/05/12 07:29:42;;;;;;;;;;;;;;;14.18;100.00;101663.44;5026075;28;20028;-45
2023/05/12 07:32:07;;;;;;;;;;;;;;;14.45;100.00;101659.81;5024471;28;19921;-44
2023/05/12 07:34:32;;;;;;;;;;;;;;;14.77;100.00;101663.22;5025201;28;19947;-44
2023/05/12 07:37:00;;;;;;;;;;;;;;;15.02;100.00;101673.28;5025417;28;19999;-45
2023/05/12 07:39:25;;;;;;;;;;;;;;;15.13;100.00;101668.34;5026125;28;19952;-45
2023/05/12 07:41:52;;;;;;;;;;;;;;;15.11;100.00;101661.41;5025252;28;20418;-46
2023/05/12 07:44:17;;;;;;;;;;;;;;;15.32;100.00;101667.03;5032445;28;20473;-45
2023/05/12 07:46:43;;;;;;;;;;;;;;;15.36;100.00;101681.81;5026142;28;19925;-46
2023/05/12 07:49:08;;;;;;;;;;;;;;;15.33;100.00;101676.56;5026061;28;19999;-45
2023/05/12 07:51:33;;;;;;;;;;;;;;;15.47;100.00;101677.75;5024463;28;20344;-46
2023/05/12 07:53:59;;;;;;;;;;;;;;;15.77;100.00;101680.13;5026180;28;19917;-45
2023/05/12 07:56:24;;;;;;;;;;;;;;;15.76;99.40;101683.53;5026470;28;20015;-45
2023/05/12 07:58:50;;;;;;;;;;;;;;;15.66;99.79;101683.34;5015212;28;20029;-43
2023/05/12 08:01:15;;;;;;;;;;;;;;;15.60;100.00;101684.06;5026135;28;19921;-44
2023/05/12 08:03:40;;;;;;;;;;;;;;;15.71;97.33;101679.09;5024733;28;19932;-45
2023/05/12 08:06:06;;;;;;;;;;;;;;;15.81;98.60;101687.09;5026514;28;19975;-44
2023/05/12 08:08:31;;;;;;;;;;;;;;;15.95;96.73;101684.75;5025020;28;19955;-45
2023/05/12 08:10:56;;;;;;;;;;;;;;;16.01;97.43;101691.78;5037343;28;19921;-45
2023/05/12 08:13:22;;;;;;;;;;;;;;;16.10;99.76;101691.97;5024234;28;19929;-45
2023/05/12 08:15:48;;;;;;;;;;;;;;;16.18;97.00;101686.91;5025736;28;20005;-44
2023/05/12 08:18:13;;;;;;;;;;;;;;;16.12;92.46;101697.19;5025654;28;19921;-44
2023/05/12 08:20:38;;;;;;;;;;;;;;;15.93;93.53;101695.97;5026085;28;19943;-43
2023/05/12 08:23:03;;;;;;;;;;;;;;;15.89;95.85;101696.75;5024889;28;19917;-45
2023/05/12 08:25:29;;;;;;;;;;;;;;;15.85;98.10;101690.63;5026032;28;19921;-43
2023/05/12 08:27:56;;;;;;;;;;;;;;;15.85;94.53;101700.13;5029004;28;19917;-43
2023/05/12 08:30:21;;;;;;;;;;;;;;;15.91;95.06;101701.13;5025333;28;19969;-44
2023/05/12 08:32:46;;;;;;;;;;;;;;;16.02;94.26;101704.81;5029602;28;20345;-44
2023/05/12 08:35:12;;;;;;;;;;;;;;;16.20;94.93;101708.56;5028270;28;19948;-45
2023/05/12 08:37:37;;;;;;;;;;;;;;;16.48;92.51;101702.16;5028972;28;20085;-44
2023/05/12 08:40:08;;;;;;;;;;;;;;;16.82;90.33;101698.44;5028824;28;20409;-44
2023/05/12 08:42:41;;;;;;;;;;;;;;;17.12;90.64;101718.81;5028889;28;19949;-44
2023/05/12 08:45:07;;;;;;;;;;;;;;;17.31;86.92;101707.81;5027677;28;20291;-45
2023/05/12 08:47:32;;;;;;;;;;;;;;;17.19;81.57;101717.19;5028689;28;19921;-45
2023/05/12 08:49:59;;;;;;;;;;;;;;;17.06;82.68;101723.94;5029499;28;19921;-44
2023/05/12 08:52:26;;;;;;;;;;;;;;;16.87;83.74;101722.78;5028275;28;19913;-46
2023/05/12 08:54:52;;;;;;;;;;;;;;;16.89;81.89;101744.44;5027294;28;19961;-46
2023/05/12 08:57:18;;;;;;;;;;;;;;;16.77;83.38;101720.88;5028700;28;19925;-48
2023/05/12 08:59:43;;;;;;;;;;;;;;;16.74;80.37;101733.78;5028888;28;19924;-44
2023/05/12 09:02:10;;;;;;;;;;;;;;;16.77;85.29;101720.88;5028892;28;20345;-45
2023/05/12 09:04:37;;;;;;;;;;;;;;;16.87;85.78;101723.63;5028254;28;20007;-44
2023/05/12 09:07:03;;;;;;;;;;;;;;;16.98;84.14;101735.91;5027915;28;20016;-46
2023/05/12 09:09:31;;;;;;;;;;;;;;;16.95;83.96;101728.94;5023107;28;19952;-43
2023/05/12 09:11:59;;;;;;;;;;;;;;;17.07;85.56;101730.88;5029139;28;19948;-45
2023/05/12 09:14:24;;;;;;;;;;;;;;;17.29;82.69;101740.72;5028045;28;19956;-44
2023/05/12 09:16:52;;;;;;;;;;;;;;;17.51;82.43;101734.09;5027287;28;19949;-45
2023/05/12 09:19:19;;;;;;;;;;;;;;;17.44;81.58;101732.25;5028428;28;20029;-45
2023/05/12 09:21:44;;;;;;;;;;;;;;;17.53;79.86;101734.09;5040561;28;19923;-43
2023/05/12 09:24:09;;;;;;;;;;;;;;;17.50;77.86;101758.34;5097091;28;20031;-45
2023/05/12 09:26:44;;;;;;;;;;;;;;;17.50;76.76;101734.94;5027839;28;19929;-43
2023/05/12 09:29:10;;;;;;;;;;;;;;;17.60;78.50;101739.44;5029098;27;19921;-44
2023/05/12 09:31:35;;;;;;;;;;;;;;;17.76;73.59;101737.03;5028636;28;20375;-44
2023/05/12 09:34:05;;;;;;;;;;;;;;;17.78;76.16;101732.75;5028461;28;19970;-46
2023/05/12 09:36:32;;;;;;;;;;;;;;;17.86;74.59;101736.31;5028092;28;20508;-44
2023/05/12 09:39:05;;;;;;;;;;;;;;;17.78;75.21;101740.56;5026078;28;19917;-44
2023/05/12 09:41:40;;;;;;;;;;;;;;;17.90;74.84;101722.50;5027857;28;19920;-48
2023/05/12 09:44:07;;;;;;;;;;;;;;;17.95;75.05;101732.06;5028109;28;19917;-44
2023/05/12 09:46:32;;;;;;;;;;;;;;;17.77;75.38;101736.19;5027891;28;20347;-48
2023/05/12 09:48:58;;;;;;;;;;;;;;;17.80;76.79;101742.31;5026707;28;20008;-45
2023/05/12 09:51:24;;;;;;;;;;;;;;;17.86;73.24;101741.50;5027610;28;19918;-47
2023/05/12 09:53:50;;;;;;;;;;;;;;;17.88;72.31;101735.44;5024652;28;19921;-46
2023/05/12 09:56:16;;;;;;;;;;;;;;;17.78;73.40;101751.84;5027924;28;20021;-45
2023/05/12 09:58:46;;;;;;;;;;;;;;;17.67;76.59;101748.19;5026200;28;19932;-45
2023/05/12 10:01:12;;;;;;;;;;;;;;;17.77;73.07;101749.19;5027393;28;19921;-46
2023/05/12 10:03:39;;;;;;;;;;;;;;;17.78;75.29;101749.22;5027711;28;19929;-47
2023/05/12 10:06:06;;;;;;;;;;;;;;;18.01;72.34;101749.47;5028238;28;22061;-45
2023/05/12 10:08:36;;;;;;;;;;;;;;;18.16;73.26;101738.38;5025784;28;19913;-48
2023/05/12 10:11:03;;;;;;;;;;;;;;;18.26;70.65;101741.94;5026836;28;19944;-47
2023/05/12 10:13:29;;;;;;;;;;;;;;;18.36;65.80;101765.50;5027194;28;19954;-46
2023/05/12 10:15:56;;;;;;;;;;;;;;;18.42;68.00;101759.47;5027772;28;19940;-48
2023/05/12 10:18:21;;;;;;;;;;;;;;;18.33;66.86;101756.78;5027456;28;19924;-43
2023/05/12 10:20:47;;;;;;;;;;;;;;;18.48;68.04;101749.13;5025591;28;19921;-45
2023/05/12 10:23:13;;;;;;;;;;;;;;;18.52;67.91;101756.13;5019859;27;20035;-47
2023/05/12 10:25:40;;;;;;;;;;;;;;;18.63;68.22;101754.50;5026896;28;19972;-45
2023/05/12 10:28:05;;;;;;;;;;;;;;;18.62;68.20;101765.75;5025642;28;19917;-48
2023/05/12 10:30:30;;;;;;;;;;;;;;;18.56;66.17;101768.28;5021528;28;20028;-46
2023/05/12 10:32:56;;;;;;;;;;;;;;;18.45;66.53;101777.75;5022297;28;20057;-46
2023/05/12 10:35:30;;;;;;;;;;;;;;;18.46;66.71;101763.88;5022710;28;19929;-45
2023/05/12 10:37:59;;;;;;;;;;;;;;;18.45;67.27;101752.56;5021824;28;19932;-47
2023/05/12 10:40:25;;;;;;;;;;;;;;;18.34;65.77;101750.72;5021037;28;20748;-44
2023/05/12 10:42:51;;;;;;;;;;;;;;;18.38;65.44;101770.72;5022952;28;19928;-45
2023/05/12 10:45:18;;;;;;;;;;;;;;;18.45;64.33;101769.94;5023638;28;20016;-44
2023/05/12 10:47:44;;;;;;;;;;;;;;;18.46;64.98;101767.34;5023962;28;19925;-45
2023/05/12 10:50:12;;;;;;;;;;;;;;;18.50;66.78;101760.41;5022732;28;19925;-45
2023/05/12 10:52:38;;;;;;;;;;;;;;;18.68;67.11;101762.34;5021450;28;19921;-45
2023/05/12 10:55:03;;;;;;;;;;;;;;;18.77;65.96;101761.56;5023953;28;20349;-47
2023/05/12 10:57:30;;;;;;;;;;;;;;;18.52;65.24;101766.53;5024294;28;19974;-46
2023/05/12 10:59:56;;;;;;;;;;;;;;;18.34;66.99;101769.81;5024670;28;19963;-46
2023/05/12 11:02:27;;;;;;;;;;;;;;;18.36;66.56;101770.69;5018941;28;19917;-48
2023/05/12 11:04:56;;;;;;;;;;;;;;;18.38;64.24;101766.41;5023192;28;20035;-46
2023/05/12 11:07:25;;;;;;;;;;;;;;;18.48;66.54;101781.25;5021848;28;19925;-46
2023/05/12 11:09:50;;;;;;;;;;;;;;;18.63;62.36;101790.09;5024558;28;19921;-45
2023/05/12 11:12:16;;;;;;;;;;;;;;;18.48;65.87;101769.94;5022780;28;20004;-45
2023/05/12 11:14:42;;;;;;;;;;;;;;;18.70;64.63;101776.28;5024130;28;19921;-47
2023/05/12 11:17:11;;;;;;;;;;;;;;;18.71;62.05;101788.44;5023846;28;19991;-44
2023/05/12 11:19:37;;;;;;;;;;;;;;;18.60;62.67;101788.31;5022779;28;19918;-45
2023/05/12 11:22:03;;;;;;;;;;;;;;;18.73;64.94;101789.31;5023706;28;19924;-46
2023/05/12 11:24:29;;;;;;;;;;;;;;;18.82;62.40;101783.34;5022241;28;19917;-47
2023/05/12 11:26:55;;;;;;;;;;;;;;;18.89;63.41;101786.00;5046802;28;20295;-46
2023/05/12 11:29:20;;;;;;;;;;;;;;;18.85;62.33;101796.38;5022638;28;19921;-45
2023/05/12 11:31:47;;;;;;;;;;;;;;;18.73;62.11;101792.78;5019913;28;20288;-46
2023/05/12 11:34:13;;;;;;;;;;;;;;;18.66;64.56;101788.38;5024620;28;20436;-46
2023/05/12 11:36:39;;;;;;;;;;;;;;;18.62;63.30;101802.22;5022296;28;19921;-46
2023/05/12 11:39:05;;;;;;;;;;;;;;;18.45;64.56;101790.78;5023331;28;19925;-44
2023/05/12 11:41:31;;;;;;;;;;;;;;;18.50;65.58;101789.06;5019717;28;20008;-44
2023/05/12 11:43:57;;;;;;;;;;;;;;;18.74;66.06;101797.16;5022008;28;20117;-45
2023/05/12 11:46:25;;;;;;;;;;;;;;;19.00;61.91;101799.13;5020892;28;19940;-45
2023/05/12 11:48:55;;;;;;;;;;;;;;;19.09;60.46;101809.63;5022777;28;19975;-46
2023/05/12 11:51:20;;;;;;;;;;;;;;;18.99;55.98;101818.25;5018576;28;19925;-45
2023/05/12 11:53:45;;;;;;;;;;;;;;;18.91;56.60;101817.28;5018956;28;19932;-45
2023/05/12 11:56:16;;;;;;;;;;;;;;;18.85;58.84;101804.19;5020079;28;19985;-44
2023/05/12 11:58:50;;;;;;;;;;;;;;;18.97;57.47;101813.00;5021866;28;19924;-45
2023/05/12 12:01:16;;;;;;;;;;;;;;;19.07;56.29;101802.66;5021699;28;19951;-45
2023/05/12 12:03:47;;;;;;;;;;;;;;;18.93;58.06;101812.97;5056184;28;19929;-45
2023/05/12 12:06:12;;;;;;;;;;;;;;;18.91;57.90;101820.75;5019384;28;19932;-44
2023/05/12 12:08:48;;;;;;;;;;;;;;;18.97;59.38;101819.94;5020674;28;19921;-45
2023/05/12 12:11:13;;;;;;;;;;;;;;;18.96;56.92;101820.81;5019332;28;19932;-44
2023/05/12 12:13:46;;;;;;;;;;;;;;;19.03;58.15;101820.88;5021623;28;19921;-46
2023/05/12 12:16:11;;;;;;;;;;;;;;;19.25;57.88;101821.91;5020487;28;19921;-45
2023/05/12 12:18:36;;;;;;;;;;;;;;;19.41;56.51;101833.31;5020160;28;20273;-45
2023/05/12 12:21:01;;;;;;;;;;;;;;;19.52;56.36;101823.84;5023103;28;19978;-44
2023/05/12 12:23:27;;;;;;;;;;;;;;;19.54;56.62;101824.75;5025441;28;19929;-44